sensor_id;sensor_type;location;lat;lon;timestamp;P1;durP1;ratioP1;P2;durP2;ratioP2
6017;SDS011;3037;51.068;13.780;2023-05-10T00:00:11;11.03;;;4.73;;
6017;SDS011;3037;51.068;13.780;2023-05-10T00:02:37;2.90;;;2.57;;
6017;SDS011;3037;51.068;13.780;2023-05-10T00:05:03;3.23;;;2.87;;
6017;SDS011;3037;51.068;13.780;2023-05-10T00:07:29;3.67;;;3.23;;
6017;SDS011;3037;51.068;13.780;2023-05-10T00:09:55;2.53;;;2.23;;
6017;SDS011;3037;51.068;13.780;2023-05-10T00:12:21;4.67;;;2.00;;
6017;SDS011;3037;51.068;13.780;2023-05-10T00:14:46;2.13;;;2.03;;
6017;SDS011;3037;51.068;13.780;2023-05-10T00:17:12;6.93;;;2.53;;
6017;SDS011;3037;51.068;13.780;2023-05-10T00:19:37;4.53;;;2.50;;
6017;SDS011;3037;51.068;13.780;2023-05-10T00:22:03;2.20;;;2.10;;
6017;SDS011;3037;51.068;13.780;2023-05-10T00:24:28;3.07;;;2.77;;
6017;SDS011;3037;51.068;13.780;2023-05-10T00:26:53;4.53;;;2.10;;
6017;SDS011;3037;51.068;13.780;2023-05-10T00:29:19;4.13;;;2.20;;
6017;SDS011;3037;51.068;13.780;2023-05-10T00:31:44;3.00;;;2.40;;
6017;SDS011;3037;51.068;13.780;2023-05-10T00:34:10;9.93;;;2.73;;
6017;SDS011;3037;51.068;13.780;2023-05-10T00:36:35;3.23;;;2.30;;
6017;SDS011;3037;51.068;13.780;2023-05-10T00:39:01;8.90;;;2.10;;
6017;SDS011;3037;51.068;13.780;2023-05-10T00:41:28;3.90;;;2.87;;
6017;SDS011;3037;51.068;13.780;2023-05-10T00:43:54;2.03;;;1.90;;
6017;SDS011;3037;51.068;13.780;2023-05-10T00:46:19;3.03;;;2.00;;
6017;SDS011;3037;51.068;13.780;2023-05-10T00:48:46;4.70;;;2.27;;
6017;SDS011;3037;51.068;13.780;2023-05-10T00:51:12;2.50;;;2.40;;
6017;SDS011;3037;51.068;13.780;2023-05-10T00:53:38;2.33;;;2.23;;
6017;SDS011;3037;51.068;13.780;2023-05-10T00:56:04;4.50;;;2.13;;
6017;SDS011;3037;51.068;13.780;2023-05-10T00:58:30;3.47;;;3.10;;
6017;SDS011;3037;51.068;13.780;2023-05-10T01:00:56;2.13;;;1.90;;
6017;SDS011;3037;51.068;13.780;2023-05-10T01:03:22;1.90;;;1.80;;
6017;SDS011;3037;51.068;13.780;2023-05-10T01:05:48;6.40;;;2.40;;
6017;SDS011;3037;51.068;13.780;2023-05-10T01:08:13;4.60;;;2.20;;
6017;SDS011;3037;51.068;13.780;2023-05-10T01:10:39;2.53;;;2.43;;
6017;SDS011;3037;51.068;13.780;2023-05-10T01:13:05;3.77;;;2.00;;
6017;SDS011;3037;51.068;13.780;2023-05-10T01:15:31;2.13;;;2.00;;
6017;SDS011;3037;51.068;13.780;2023-05-10T01:17:57;2.03;;;1.93;;
6017;SDS011;3037;51.068;13.780;2023-05-10T01:20:24;2.20;;;2.00;;
6017;SDS011;3037;51.068;13.780;2023-05-10T01:23:10;3.53;;;2.40;;
6017;SDS011;3037;51.068;13.780;2023-05-10T01:28:33;2.13;;;2.00;;
6017;SDS011;3037;51.068;13.780;2023-05-10T01:31:08;4.17;;;2.20;;
6017;SDS011;3037;51.068;13.780;2023-05-10T01:33:59;2.27;;;2.07;;
6017;SDS011;3037;51.068;13.780;2023-05-10T01:36:40;2.00;;;1.90;;
6017;SDS011;3037;51.068;13.780;2023-05-10T01:39:16;8.40;;;2.70;;
6017;SDS011;3037;51.068;13.780;2023-05-10T01:41:51;1.73;;;1.67;;
6017;SDS011;3037;51.068;13.780;2023-05-10T01:44:24;3.30;;;2.33;;
6017;SDS011;3037;51.068;13.780;2023-05-10T01:49:34;16.13;;;2.53;;
6017;SDS011;3037;51.068;13.780;2023-05-10T01:52:09;2.13;;;2.03;;
6017;SDS011;3037;51.068;13.780;2023-05-10T01:54:38;2.33;;;2.13;;
6017;SDS011;3037;51.068;13.780;2023-05-10T01:57:13;3.50;;;2.23;;
6017;SDS011;3037;51.068;13.780;2023-05-10T01:59:41;2.27;;;2.17;;
6017;SDS011;3037;51.068;13.780;2023-05-10T02:02:10;2.20;;;2.00;;
6017;SDS011;3037;51.068;13.780;2023-05-10T02:04:37;2.20;;;2.10;;
6017;SDS011;3037;51.068;13.780;2023-05-10T02:07:04;2.37;;;2.27;;
6017;SDS011;3037;51.068;13.780;2023-05-10T02:09:32;2.20;;;2.10;;
6017;SDS011;3037;51.068;13.780;2023-05-10T02:11:59;2.67;;;2.47;;
6017;SDS011;3037;51.068;13.780;2023-05-10T02:14:27;2.27;;;2.17;;
6017;SDS011;3037;51.068;13.780;2023-05-10T02:16:55;5.07;;;2.80;;
6017;SDS011;3037;51.068;13.780;2023-05-10T02:19:23;2.57;;;2.37;;
6017;SDS011;3037;51.068;13.780;2023-05-10T02:21:49;3.20;;;2.97;;
6017;SDS011;3037;51.068;13.780;2023-05-10T02:24:16;3.37;;;2.57;;
6017;SDS011;3037;51.068;13.780;2023-05-10T02:26:44;6.67;;;2.60;;
6017;SDS011;3037;51.068;13.780;2023-05-10T02:29:11;2.47;;;2.20;;
6017;SDS011;3037;51.068;13.780;2023-05-10T02:31:38;2.20;;;2.10;;
6017;SDS011;3037;51.068;13.780;2023-05-10T02:34:05;2.47;;;2.37;;
6017;SDS011;3037;51.068;13.780;2023-05-10T02:36:32;4.70;;;2.10;;
6017;SDS011;3037;51.068;13.780;2023-05-10T02:38:58;4.43;;;1.97;;
6017;SDS011;3037;51.068;13.780;2023-05-10T02:41:26;2.67;;;2.47;;
6017;SDS011;3037;51.068;13.780;2023-05-10T02:43:55;2.50;;;2.30;;
6017;SDS011;3037;51.068;13.780;2023-05-10T02:46:22;6.60;;;2.20;;
6017;SDS011;3037;51.068;13.780;2023-05-10T02:48:48;2.43;;;2.20;;
6017;SDS011;3037;51.068;13.780;2023-05-10T02:51:14;2.50;;;2.40;;
6017;SDS011;3037;51.068;13.780;2023-05-10T02:53:43;2.37;;;2.27;;
6017;SDS011;3037;51.068;13.780;2023-05-10T02:56:23;2.97;;;2.10;;
6017;SDS011;3037;51.068;13.780;2023-05-10T02:58:53;2.50;;;2.40;;
6017;SDS011;3037;51.068;13.780;2023-05-10T03:01:19;2.47;;;2.37;;
6017;SDS011;3037;51.068;13.780;2023-05-10T03:03:45;2.27;;;2.07;;
6017;SDS011;3037;51.068;13.780;2023-05-10T03:06:10;2.67;;;2.47;;
6017;SDS011;3037;51.068;13.780;2023-05-10T03:08:36;3.57;;;2.10;;
6017;SDS011;3037;51.068;13.780;2023-05-10T03:11:08;2.37;;;2.27;;
6017;SDS011;3037;51.068;13.780;2023-05-10T03:16:42;3.33;;;2.27;;
6017;SDS011;3037;51.068;13.780;2023-05-10T03:19:26;1.70;;;1.60;;
6017;SDS011;3037;51.068;13.780;2023-05-10T03:21:55;2.53;;;2.43;;
6017;SDS011;3037;51.068;13.780;2023-05-10T03:24:24;2.83;;;2.53;;
6017;SDS011;3037;51.068;13.780;2023-05-10T03:26:53;2.90;;;2.70;;
6017;SDS011;3037;51.068;13.780;2023-05-10T03:29:21;3.00;;;2.60;;
6017;SDS011;3037;51.068;13.780;2023-05-10T03:31:50;7.50;;;2.80;;
6017;SDS011;3037;51.068;13.780;2023-05-10T03:34:15;5.30;;;2.60;;
6017;SDS011;3037;51.068;13.780;2023-05-10T03:36:42;5.40;;;2.00;;
6017;SDS011;3037;51.068;13.780;2023-05-10T03:39:07;2.53;;;2.37;;
6017;SDS011;3037;51.068;13.780;2023-05-10T03:41:33;6.83;;;1.90;;
6017;SDS011;3037;51.068;13.780;2023-05-10T03:43:59;2.20;;;2.10;;
6017;SDS011;3037;51.068;13.780;2023-05-10T03:46:24;2.07;;;1.97;;
6017;SDS011;3037;51.068;13.780;2023-05-10T03:48:50;2.23;;;2.13;;
6017;SDS011;3037;51.068;13.780;2023-05-10T03:51:15;2.17;;;2.07;;
6017;SDS011;3037;51.068;13.780;2023-05-10T03:53:41;3.17;;;2.40;;
6017;SDS011;3037;51.068;13.780;2023-05-10T03:56:06;2.00;;;1.90;;
6017;SDS011;3037;51.068;13.780;2023-05-10T03:58:32;2.30;;;2.20;;
6017;SDS011;3037;51.068;13.780;2023-05-10T04:00:57;3.73;;;2.10;;
6017;SDS011;3037;51.068;13.780;2023-05-10T04:03:23;3.67;;;2.83;;
6017;SDS011;3037;51.068;13.780;2023-05-10T04:05:57;3.97;;;2.90;;
6017;SDS011;3037;51.068;13.780;2023-05-10T04:08:24;2.90;;;2.70;;
6017;SDS011;3037;51.068;13.780;2023-05-10T04:10:50;2.80;;;2.50;;
6017;SDS011;3037;51.068;13.780;2023-05-10T04:13:15;3.70;;;2.10;;
6017;SDS011;3037;51.068;13.780;2023-05-10T04:15:41;2.37;;;2.27;;
6017;SDS011;3037;51.068;13.780;2023-05-10T04:18:06;3.50;;;2.50;;
6017;SDS011;3037;51.068;13.780;2023-05-10T04:20:32;3.93;;;2.90;;
6017;SDS011;3037;51.068;13.780;2023-05-10T04:22:58;4.80;;;2.30;;
6017;SDS011;3037;51.068;13.780;2023-05-10T04:25:23;10.90;;;2.40;;
6017;SDS011;3037;51.068;13.780;2023-05-10T04:27:49;2.70;;;2.10;;
6017;SDS011;3037;51.068;13.780;2023-05-10T04:30:14;2.40;;;1.90;;
6017;SDS011;3037;51.068;13.780;2023-05-10T04:32:40;2.43;;;2.30;;
6017;SDS011;3037;51.068;13.780;2023-05-10T04:35:05;1.80;;;1.80;;
6017;SDS011;3037;51.068;13.780;2023-05-10T04:37:31;6.67;;;2.70;;
6017;SDS011;3037;51.068;13.780;2023-05-10T04:39:56;3.13;;;2.80;;
6017;SDS011;3037;51.068;13.780;2023-05-10T04:42:22;2.03;;;1.93;;
6017;SDS011;3037;51.068;13.780;2023-05-10T04:44:47;3.30;;;2.33;;
6017;SDS011;3037;51.068;13.780;2023-05-10T04:47:13;2.30;;;2.10;;
6017;SDS011;3037;51.068;13.780;2023-05-10T04:49:38;2.70;;;2.50;;
6017;SDS011;3037;51.068;13.780;2023-05-10T04:52:04;2.57;;;2.27;;
6017;SDS011;3037;51.068;13.780;2023-05-10T04:54:29;2.80;;;2.40;;
6017;SDS011;3037;51.068;13.780;2023-05-10T04:56:55;2.37;;;2.27;;
6017;SDS011;3037;51.068;13.780;2023-05-10T04:59:20;2.20;;;2.10;;
6017;SDS011;3037;51.068;13.780;2023-05-10T05:01:45;2.80;;;2.60;;
6017;SDS011;3037;51.068;13.780;2023-05-10T05:04:11;6.00;;;2.30;;
6017;SDS011;3037;51.068;13.780;2023-05-10T05:06:36;3.40;;;2.53;;
6017;SDS011;3037;51.068;13.780;2023-05-10T05:09:02;3.07;;;2.40;;
6017;SDS011;3037;51.068;13.780;2023-05-10T05:11:27;7.30;;;2.17;;
6017;SDS011;3037;51.068;13.780;2023-05-10T05:13:53;2.70;;;2.50;;
6017;SDS011;3037;51.068;13.780;2023-05-10T05:16:18;2.53;;;2.30;;
6017;SDS011;3037;51.068;13.780;2023-05-10T05:18:44;2.20;;;2.10;;
6017;SDS011;3037;51.068;13.780;2023-05-10T05:21:13;2.20;;;2.00;;
6017;SDS011;3037;51.068;13.780;2023-05-10T05:23:42;2.50;;;2.27;;
6017;SDS011;3037;51.068;13.780;2023-05-10T05:26:08;2.23;;;2.03;;
6017;SDS011;3037;51.068;13.780;2023-05-10T05:28:33;2.53;;;2.33;;
6017;SDS011;3037;51.068;13.780;2023-05-10T05:31:02;2.60;;;2.47;;
6017;SDS011;3037;51.068;13.780;2023-05-10T05:33:28;5.37;;;2.53;;
6017;SDS011;3037;51.068;13.780;2023-05-10T05:35:53;2.73;;;2.53;;
6017;SDS011;3037;51.068;13.780;2023-05-10T05:38:19;2.03;;;1.87;;
6017;SDS011;3037;51.068;13.780;2023-05-10T05:40:44;7.47;;;2.53;;
6017;SDS011;3037;51.068;13.780;2023-05-10T05:43:10;2.70;;;2.47;;
6017;SDS011;3037;51.068;13.780;2023-05-10T05:45:36;2.13;;;2.03;;
6017;SDS011;3037;51.068;13.780;2023-05-10T05:48:01;3.57;;;2.70;;
6017;SDS011;3037;51.068;13.780;2023-05-10T05:50:27;5.07;;;2.43;;
6017;SDS011;3037;51.068;13.780;2023-05-10T05:52:52;7.30;;;2.83;;
6017;SDS011;3037;51.068;13.780;2023-05-10T05:55:18;3.10;;;2.80;;
6017;SDS011;3037;51.068;13.780;2023-05-10T05:57:43;2.63;;;2.43;;
6017;SDS011;3037;51.068;13.780;2023-05-10T06:00:09;2.80;;;2.40;;
6017;SDS011;3037;51.068;13.780;2023-05-10T06:02:35;2.67;;;2.47;;
6017;SDS011;3037;51.068;13.780;2023-05-10T06:05:01;8.07;;;2.53;;
6017;SDS011;3037;51.068;13.780;2023-05-10T06:07:27;2.07;;;1.97;;
6017;SDS011;3037;51.068;13.780;2023-05-10T06:09:52;4.03;;;2.50;;
6017;SDS011;3037;51.068;13.780;2023-05-10T06:12:18;3.97;;;2.40;;
6017;SDS011;3037;51.068;13.780;2023-05-10T06:14:43;3.27;;;2.40;;
6017;SDS011;3037;51.068;13.780;2023-05-10T06:17:09;2.33;;;2.10;;
6017;SDS011;3037;51.068;13.780;2023-05-10T06:19:34;2.40;;;2.33;;
6017;SDS011;3037;51.068;13.780;2023-05-10T06:22:00;4.53;;;2.30;;
6017;SDS011;3037;51.068;13.780;2023-05-10T06:24:26;3.50;;;1.80;;
6017;SDS011;3037;51.068;13.780;2023-05-10T06:26:52;3.90;;;1.77;;
6017;SDS011;3037;51.068;13.780;2023-05-10T06:29:17;6.00;;;2.17;;
6017;SDS011;3037;51.068;13.780;2023-05-10T06:31:43;2.67;;;2.43;;
6017;SDS011;3037;51.068;13.780;2023-05-10T06:34:08;2.27;;;2.17;;
6017;SDS011;3037;51.068;13.780;2023-05-10T06:36:34;7.33;;;2.40;;
6017;SDS011;3037;51.068;13.780;2023-05-10T06:38:59;2.20;;;2.10;;
6017;SDS011;3037;51.068;13.780;2023-05-10T06:41:26;2.53;;;2.20;;
6017;SDS011;3037;51.068;13.780;2023-05-10T06:43:51;6.73;;;2.47;;
6017;SDS011;3037;51.068;13.780;2023-05-10T06:46:16;7.90;;;2.27;;
6017;SDS011;3037;51.068;13.780;2023-05-10T06:48:42;6.53;;;2.43;;
6017;SDS011;3037;51.068;13.780;2023-05-10T06:51:07;4.60;;;2.30;;
6017;SDS011;3037;51.068;13.780;2023-05-10T06:53:33;8.17;;;2.17;;
6017;SDS011;3037;51.068;13.780;2023-05-10T06:55:58;4.70;;;2.00;;
6017;SDS011;3037;51.068;13.780;2023-05-10T06:58:24;3.53;;;2.23;;
6017;SDS011;3037;51.068;13.780;2023-05-10T07:00:50;2.70;;;2.20;;
6017;SDS011;3037;51.068;13.780;2023-05-10T07:03:15;5.37;;;2.50;;
6017;SDS011;3037;51.068;13.780;2023-05-10T07:05:41;2.67;;;2.43;;
6017;SDS011;3037;51.068;13.780;2023-05-10T07:08:07;4.20;;;2.33;;
6017;SDS011;3037;51.068;13.780;2023-05-10T07:10:33;2.00;;;1.90;;
6017;SDS011;3037;51.068;13.780;2023-05-10T07:12:58;2.27;;;2.10;;
6017;SDS011;3037;51.068;13.780;2023-05-10T07:15:25;2.43;;;2.30;;
6017;SDS011;3037;51.068;13.780;2023-05-10T07:17:50;2.73;;;2.47;;
6017;SDS011;3037;51.068;13.780;2023-05-10T07:20:16;3.30;;;2.40;;
6017;SDS011;3037;51.068;13.780;2023-05-10T07:22:42;5.87;;;2.43;;
6017;SDS011;3037;51.068;13.780;2023-05-10T07:25:07;3.23;;;2.43;;
6017;SDS011;3037;51.068;13.780;2023-05-10T07:27:33;2.60;;;2.40;;
6017;SDS011;3037;51.068;13.780;2023-05-10T07:29:59;2.80;;;2.60;;
6017;SDS011;3037;51.068;13.780;2023-05-10T07:32:25;3.10;;;2.60;;
6017;SDS011;3037;51.068;13.780;2023-05-10T07:34:51;2.90;;;2.70;;
6017;SDS011;3037;51.068;13.780;2023-05-10T07:37:16;3.07;;;2.87;;
6017;SDS011;3037;51.068;13.780;2023-05-10T07:39:42;2.73;;;2.53;;
6017;SDS011;3037;51.068;13.780;2023-05-10T07:42:07;2.50;;;2.30;;
6017;SDS011;3037;51.068;13.780;2023-05-10T07:44:33;3.30;;;3.10;;
6017;SDS011;3037;51.068;13.780;2023-05-10T07:46:58;2.80;;;2.60;;
6017;SDS011;3037;51.068;13.780;2023-05-10T07:49:24;3.90;;;2.90;;
6017;SDS011;3037;51.068;13.780;2023-05-10T07:51:50;2.80;;;2.60;;
6017;SDS011;3037;51.068;13.780;2023-05-10T07:54:16;3.37;;;2.70;;
6017;SDS011;3037;51.068;13.780;2023-05-10T07:56:42;2.60;;;2.40;;
6017;SDS011;3037;51.068;13.780;2023-05-10T07:59:15;2.93;;;2.73;;
6017;SDS011;3037;51.068;13.780;2023-05-10T08:01:41;2.83;;;2.63;;
6017;SDS011;3037;51.068;13.780;2023-05-10T08:04:07;4.70;;;2.40;;
6017;SDS011;3037;51.068;13.780;2023-05-10T08:06:33;3.73;;;2.80;;
6017;SDS011;3037;51.068;13.780;2023-05-10T08:08:59;2.57;;;2.33;;
6017;SDS011;3037;51.068;13.780;2023-05-10T08:11:24;3.80;;;2.40;;
6017;SDS011;3037;51.068;13.780;2023-05-10T08:13:50;2.67;;;2.13;;
6017;SDS011;3037;51.068;13.780;2023-05-10T08:16:16;15.67;;;2.80;;
6017;SDS011;3037;51.068;13.780;2023-05-10T08:18:43;6.77;;;2.60;;
6017;SDS011;3037;51.068;13.780;2023-05-10T08:21:13;4.17;;;2.70;;
6017;SDS011;3037;51.068;13.780;2023-05-10T08:23:39;3.20;;;2.80;;
6017;SDS011;3037;51.068;13.780;2023-05-10T08:26:04;3.67;;;3.10;;
6017;SDS011;3037;51.068;13.780;2023-05-10T08:28:30;4.47;;;3.00;;
6017;SDS011;3037;51.068;13.780;2023-05-10T08:30:56;4.30;;;2.33;;
6017;SDS011;3037;51.068;13.780;2023-05-10T08:33:21;2.43;;;2.33;;
6017;SDS011;3037;51.068;13.780;2023-05-10T08:35:47;2.67;;;2.57;;
6017;SDS011;3037;51.068;13.780;2023-05-10T08:38:12;6.40;;;3.00;;
6017;SDS011;3037;51.068;13.780;2023-05-10T08:40:39;6.70;;;2.80;;
6017;SDS011;3037;51.068;13.780;2023-05-10T08:43:08;2.80;;;2.70;;
6017;SDS011;3037;51.068;13.780;2023-05-10T08:45:38;3.13;;;2.83;;
6017;SDS011;3037;51.068;13.780;2023-05-10T08:48:05;3.10;;;3.00;;
6017;SDS011;3037;51.068;13.780;2023-05-10T08:50:33;6.77;;;3.30;;
6017;SDS011;3037;51.068;13.780;2023-05-10T08:53:03;8.10;;;2.97;;
6017;SDS011;3037;51.068;13.780;2023-05-10T08:55:31;3.83;;;2.50;;
6017;SDS011;3037;51.068;13.780;2023-05-10T08:57:58;6.63;;;3.43;;
6017;SDS011;3037;51.068;13.780;2023-05-10T09:00:24;2.90;;;2.50;;
6017;SDS011;3037;51.068;13.780;2023-05-10T09:02:50;3.37;;;3.07;;
6017;SDS011;3037;51.068;13.780;2023-05-10T09:05:15;3.37;;;2.97;;
6017;SDS011;3037;51.068;13.780;2023-05-10T09:07:42;3.20;;;2.93;;
6017;SDS011;3037;51.068;13.780;2023-05-10T09:10:08;4.97;;;3.80;;
6017;SDS011;3037;51.068;13.780;2023-05-10T09:12:34;3.10;;;2.90;;
6017;SDS011;3037;51.068;13.780;2023-05-10T09:15:00;3.70;;;2.90;;
6017;SDS011;3037;51.068;13.780;2023-05-10T09:17:27;2.70;;;2.40;;
6017;SDS011;3037;51.068;13.780;2023-05-10T09:20:01;5.90;;;2.60;;
6017;SDS011;3037;51.068;13.780;2023-05-10T09:22:28;3.37;;;3.17;;
6017;SDS011;3037;51.068;13.780;2023-05-10T09:27:30;5.60;;;3.30;;
6017;SDS011;3037;51.068;13.780;2023-05-10T09:29:55;3.20;;;3.10;;
6017;SDS011;3037;51.068;13.780;2023-05-10T09:32:21;6.70;;;2.80;;
6017;SDS011;3037;51.068;13.780;2023-05-10T09:34:46;4.90;;;3.30;;
6017;SDS011;3037;51.068;13.780;2023-05-10T09:37:14;3.97;;;3.47;;
6017;SDS011;3037;51.068;13.780;2023-05-10T09:39:40;3.43;;;3.23;;
6017;SDS011;3037;51.068;13.780;2023-05-10T09:42:07;4.23;;;2.93;;
6017;SDS011;3037;51.068;13.780;2023-05-10T09:44:33;3.27;;;3.00;;
6017;SDS011;3037;51.068;13.780;2023-05-10T09:47:00;3.80;;;3.13;;
6017;SDS011;3037;51.068;13.780;2023-05-10T09:49:27;6.30;;;3.20;;
6017;SDS011;3037;51.068;13.780;2023-05-10T09:51:59;3.60;;;3.40;;
6017;SDS011;3037;51.068;13.780;2023-05-10T09:54:27;8.03;;;3.47;;
6017;SDS011;3037;51.068;13.780;2023-05-10T09:56:53;3.77;;;3.47;;
6017;SDS011;3037;51.068;13.780;2023-05-10T09:59:18;8.00;;;3.60;;
6017;SDS011;3037;51.068;13.780;2023-05-10T10:01:49;7.53;;;3.10;;
6017;SDS011;3037;51.068;13.780;2023-05-10T10:04:16;7.50;;;3.20;;
6017;SDS011;3037;51.068;13.780;2023-05-10T10:06:42;4.30;;;3.87;;
6017;SDS011;3037;51.068;13.780;2023-05-10T10:09:08;4.50;;;4.10;;
6017;SDS011;3037;51.068;13.780;2023-05-10T10:11:35;3.37;;;3.17;;
6017;SDS011;3037;51.068;13.780;2023-05-10T10:14:01;8.40;;;3.07;;
6017;SDS011;3037;51.068;13.780;2023-05-10T10:16:30;2.80;;;2.70;;
6017;SDS011;3037;51.068;13.780;2023-05-10T10:18:57;7.67;;;3.20;;
6017;SDS011;3037;51.068;13.780;2023-05-10T10:21:23;4.27;;;3.83;;
6017;SDS011;3037;51.068;13.780;2023-05-10T10:23:49;4.03;;;3.73;;
6017;SDS011;3037;51.068;13.780;2023-05-10T10:26:15;3.87;;;3.67;;
6017;SDS011;3037;51.068;13.780;2023-05-10T10:31:17;5.30;;;3.80;;
6017;SDS011;3037;51.068;13.780;2023-05-10T10:36:28;4.17;;;3.40;;
6017;SDS011;3037;51.068;13.780;2023-05-10T10:38:55;4.37;;;4.00;;
6017;SDS011;3037;51.068;13.780;2023-05-10T10:49:31;3.97;;;3.50;;
6017;SDS011;3037;51.068;13.780;2023-05-10T10:57:52;8.40;;;3.03;;
6017;SDS011;3037;51.068;13.780;2023-05-10T11:00:27;4.70;;;3.20;;
6017;SDS011;3037;51.068;13.780;2023-05-10T11:03:03;13.70;;;3.67;;
6017;SDS011;3037;51.068;13.780;2023-05-10T11:08:18;4.37;;;3.87;;
6017;SDS011;3037;51.068;13.780;2023-05-10T11:16:09;5.57;;;3.37;;
6017;SDS011;3037;51.068;13.780;2023-05-10T11:18:36;7.80;;;3.63;;
6017;SDS011;3037;51.068;13.780;2023-05-10T11:21:02;8.70;;;3.33;;
6017;SDS011;3037;51.068;13.780;2023-05-10T11:23:34;3.07;;;2.87;;
6017;SDS011;3037;51.068;13.780;2023-05-10T11:26:20;3.60;;;3.40;;
6017;SDS011;3037;51.068;13.780;2023-05-10T11:28:48;4.23;;;3.20;;
6017;SDS011;3037;51.068;13.780;2023-05-10T11:31:17;3.60;;;3.30;;
6017;SDS011;3037;51.068;13.780;2023-05-10T11:33:47;5.03;;;2.83;;
6017;SDS011;3037;51.068;13.780;2023-05-10T11:36:21;10.67;;;3.50;;
6017;SDS011;3037;51.068;13.780;2023-05-10T11:38:48;10.10;;;3.43;;
6017;SDS011;3037;51.068;13.780;2023-05-10T11:41:15;3.93;;;3.63;;
6017;SDS011;3037;51.068;13.780;2023-05-10T11:43:42;8.30;;;4.23;;
6017;SDS011;3037;51.068;13.780;2023-05-10T11:46:09;4.70;;;4.20;;
6017;SDS011;3037;51.068;13.780;2023-05-10T11:48:38;5.17;;;3.10;;
6017;SDS011;3037;51.068;13.780;2023-05-10T11:51:04;4.70;;;4.40;;
6017;SDS011;3037;51.068;13.780;2023-05-10T11:53:31;5.03;;;2.50;;
6017;SDS011;3037;51.068;13.780;2023-05-10T11:58:34;3.47;;;3.17;;
6017;SDS011;3037;51.068;13.780;2023-05-10T12:01:00;5.37;;;3.97;;
6017;SDS011;3037;51.068;13.780;2023-05-10T12:03:27;3.90;;;3.50;;
6017;SDS011;3037;51.068;13.780;2023-05-10T12:05:53;8.30;;;3.60;;
6017;SDS011;3037;51.068;13.780;2023-05-10T12:08:20;4.70;;;3.33;;
6017;SDS011;3037;51.068;13.780;2023-05-10T12:10:47;8.57;;;3.63;;
6017;SDS011;3037;51.068;13.780;2023-05-10T12:13:13;3.47;;;3.20;;
6017;SDS011;3037;51.068;13.780;2023-05-10T12:15:40;3.83;;;3.57;;
6017;SDS011;3037;51.068;13.780;2023-05-10T12:18:07;5.93;;;3.13;;
6017;SDS011;3037;51.068;13.780;2023-05-10T12:20:37;10.83;;;3.90;;
6017;SDS011;3037;51.068;13.780;2023-05-10T12:23:03;4.73;;;3.50;;
6017;SDS011;3037;51.068;13.780;2023-05-10T12:25:30;10.63;;;3.63;;
6017;SDS011;3037;51.068;13.780;2023-05-10T12:27:58;3.70;;;3.20;;
6017;SDS011;3037;51.068;13.780;2023-05-10T12:30:28;5.43;;;3.33;;
6017;SDS011;3037;51.068;13.780;2023-05-10T12:33:02;5.13;;;4.43;;
6017;SDS011;3037;51.068;13.780;2023-05-10T12:35:32;3.73;;;3.40;;
6017;SDS011;3037;51.068;13.780;2023-05-10T12:37:58;5.67;;;3.80;;
6017;SDS011;3037;51.068;13.780;2023-05-10T12:40:24;3.73;;;3.40;;
6017;SDS011;3037;51.068;13.780;2023-05-10T12:42:50;3.00;;;2.80;;
6017;SDS011;3037;51.068;13.780;2023-05-10T12:45:16;3.57;;;3.27;;
6017;SDS011;3037;51.068;13.780;2023-05-10T12:47:43;8.00;;;3.67;;
6017;SDS011;3037;51.068;13.780;2023-05-10T12:50:08;5.50;;;3.17;;
6017;SDS011;3037;51.068;13.780;2023-05-10T12:52:34;3.53;;;3.23;;
6017;SDS011;3037;51.068;13.780;2023-05-10T12:55:00;6.83;;;3.90;;
6017;SDS011;3037;51.068;13.780;2023-05-10T12:57:26;6.07;;;3.93;;
6017;SDS011;3037;51.068;13.780;2023-05-10T12:59:52;3.23;;;3.03;;
6017;SDS011;3037;51.068;13.780;2023-05-10T13:02:19;4.50;;;3.97;;
6017;SDS011;3037;51.068;13.780;2023-05-10T13:04:45;7.53;;;4.00;;
6017;SDS011;3037;51.068;13.780;2023-05-10T13:07:12;3.57;;;3.20;;
6017;SDS011;3037;51.068;13.780;2023-05-10T13:09:38;6.73;;;3.10;;
6017;SDS011;3037;51.068;13.780;2023-05-10T13:12:04;3.43;;;3.23;;
6017;SDS011;3037;51.068;13.780;2023-05-10T13:14:30;9.30;;;3.60;;
6017;SDS011;3037;51.068;13.780;2023-05-10T13:16:56;6.23;;;3.40;;
6017;SDS011;3037;51.068;13.780;2023-05-10T13:19:22;9.17;;;2.97;;
6017;SDS011;3037;51.068;13.780;2023-05-10T13:21:47;4.03;;;3.70;;
6017;SDS011;3037;51.068;13.780;2023-05-10T13:24:13;4.63;;;3.20;;
6017;SDS011;3037;51.068;13.780;2023-05-10T13:26:41;3.87;;;3.57;;
6017;SDS011;3037;51.068;13.780;2023-05-10T13:29:07;3.77;;;3.50;;
6017;SDS011;3037;51.068;13.780;2023-05-10T13:31:33;3.10;;;2.90;;
6017;SDS011;3037;51.068;13.780;2023-05-10T13:33:59;15.07;;;3.87;;
6017;SDS011;3037;51.068;13.780;2023-05-10T13:36:25;4.20;;;3.80;;
6017;SDS011;3037;51.068;13.780;2023-05-10T13:38:51;3.40;;;3.10;;
6017;SDS011;3037;51.068;13.780;2023-05-10T13:41:16;4.40;;;2.97;;
6017;SDS011;3037;51.068;13.780;2023-05-10T13:43:42;6.77;;;3.00;;
6017;SDS011;3037;51.068;13.780;2023-05-10T13:46:08;3.07;;;2.90;;
6017;SDS011;3037;51.068;13.780;2023-05-10T13:48:33;3.50;;;3.00;;
6017;SDS011;3037;51.068;13.780;2023-05-10T13:51:02;4.97;;;2.83;;
6017;SDS011;3037;51.068;13.780;2023-05-10T13:53:27;3.83;;;3.53;;
6017;SDS011;3037;51.068;13.780;2023-05-10T13:55:53;4.13;;;3.87;;
6017;SDS011;3037;51.068;13.780;2023-05-10T13:58:18;3.73;;;3.23;;
6017;SDS011;3037;51.068;13.780;2023-05-10T14:00:44;3.20;;;2.30;;
6017;SDS011;3037;51.068;13.780;2023-05-10T14:03:10;7.90;;;2.90;;
6017;SDS011;3037;51.068;13.780;2023-05-10T14:05:35;9.23;;;3.30;;
6017;SDS011;3037;51.068;13.780;2023-05-10T14:08:01;4.30;;;3.43;;
6017;SDS011;3037;51.068;13.780;2023-05-10T14:10:28;3.97;;;2.93;;
6017;SDS011;3037;51.068;13.780;2023-05-10T14:12:54;3.00;;;2.80;;
6017;SDS011;3037;51.068;13.780;2023-05-10T14:15:19;4.57;;;3.30;;
6017;SDS011;3037;51.068;13.780;2023-05-10T14:17:45;2.90;;;2.80;;
6017;SDS011;3037;51.068;13.780;2023-05-10T14:20:11;3.37;;;3.07;;
6017;SDS011;3037;51.068;13.780;2023-05-10T14:22:36;6.53;;;3.17;;
6017;SDS011;3037;51.068;13.780;2023-05-10T14:25:02;14.77;;;2.73;;
6017;SDS011;3037;51.068;13.780;2023-05-10T14:27:28;5.80;;;3.60;;
6017;SDS011;3037;51.068;13.780;2023-05-10T14:29:55;5.77;;;3.60;;
6017;SDS011;3037;51.068;13.780;2023-05-10T14:32:20;5.97;;;3.17;;
6017;SDS011;3037;51.068;13.780;2023-05-10T14:34:46;5.87;;;3.80;;
6017;SDS011;3037;51.068;13.780;2023-05-10T14:37:12;3.70;;;3.40;;
6017;SDS011;3037;51.068;13.780;2023-05-10T14:39:38;3.23;;;2.80;;
6017;SDS011;3037;51.068;13.780;2023-05-10T14:42:04;3.10;;;2.90;;
6017;SDS011;3037;51.068;13.780;2023-05-10T14:44:29;5.70;;;3.20;;
6017;SDS011;3037;51.068;13.780;2023-05-10T14:46:55;2.77;;;2.67;;
6017;SDS011;3037;51.068;13.780;2023-05-10T14:49:21;6.10;;;2.93;;
6017;SDS011;3037;51.068;13.780;2023-05-10T14:51:49;4.37;;;2.83;;
6017;SDS011;3037;51.068;13.780;2023-05-10T14:54:15;8.17;;;3.47;;
6017;SDS011;3037;51.068;13.780;2023-05-10T14:56:40;3.50;;;3.20;;
6017;SDS011;3037;51.068;13.780;2023-05-10T14:59:06;4.70;;;2.83;;
6017;SDS011;3037;51.068;13.780;2023-05-10T15:01:32;3.17;;;2.47;;
6017;SDS011;3037;51.068;13.780;2023-05-10T15:04:00;4.77;;;3.13;;
6017;SDS011;3037;51.068;13.780;2023-05-10T15:06:30;11.83;;;3.10;;
6017;SDS011;3037;51.068;13.780;2023-05-10T15:08:57;5.10;;;3.30;;
6017;SDS011;3037;51.068;13.780;2023-05-10T15:11:22;4.20;;;3.50;;
6017;SDS011;3037;51.068;13.780;2023-05-10T15:13:47;3.50;;;3.20;;
6017;SDS011;3037;51.068;13.780;2023-05-10T15:16:13;4.10;;;3.00;;
6017;SDS011;3037;51.068;13.780;2023-05-10T15:18:38;3.10;;;2.80;;
6017;SDS011;3037;51.068;13.780;2023-05-10T15:21:04;5.70;;;3.60;;
6017;SDS011;3037;51.068;13.780;2023-05-10T15:23:29;4.30;;;3.03;;
6017;SDS011;3037;51.068;13.780;2023-05-10T15:25:55;6.30;;;3.80;;
6017;SDS011;3037;51.068;13.780;2023-05-10T15:28:21;7.23;;;3.10;;
6017;SDS011;3037;51.068;13.780;2023-05-10T15:30:47;4.43;;;3.63;;
6017;SDS011;3037;51.068;13.780;2023-05-10T15:33:12;3.47;;;2.93;;
6017;SDS011;3037;51.068;13.780;2023-05-10T15:35:38;3.57;;;3.37;;
6017;SDS011;3037;51.068;13.780;2023-05-10T15:38:04;3.80;;;2.97;;